New Virginia, Iowa
Current Conditions -  °F | °C
As of 8:15 AM on Friday 19 Dec 2014 (Local Time) from KI75 Reporting Station
Haze Haze  
Wind Chill: 29°   Ceiling: 4100
Heat Index: 29°   Visibility: 5mi
Dew Point: 28°   Wind: 0mph
Humidity: 96%   Direction: NA
Pressure: 30.25"   Gusts: NA
Location:  41.18°N, 93.73°W
Report Text: KI75 191415Z AUTO 00000KT 5SM BR OVC041 M01/M02 A3025 RMK AO2 T10151021
Loading
Personal Weather Stations






























Interactive Weather Map New forecast layout! Learn more

10-Day Weather Forecast

Advertisements
Track Severe Weather on mobile